Pickle Lake Airport
CYPL : now visible

Airfield :











YOU CAN JOIN US ON...

 
LOGIN :

Register | Disclaimer

   EN    FR    IT 

 









Legend :    VFR   Marginal VFR   IFR   Intensive IFR   Very Intensive IFR
Visi :
Ceiling :
>= 8 km
>= 3000ft
5 to 8 km
1000 to 3000 ft
1500m to 5 km
500 to 1000 ft
800 to 1500m
200 to 500 ft
< 800m
< 200 ft
Symbols :   Thunderstorms  Fog  Heavy snow  Heavy precipitations  Wind > 20 kt






- Airport Elevation : 1267 ft
- IATA code : YPL


CYPL - Pickle Lake

CURRENT METAR :
  • 202039Z AUTO 35010G19KT 310V030 9SM SCT011 BKN016 OVC020 12/11 A2958 RMK PRESRR SLP029 DENSITY ALT 1600FT

EXPIRED METARs :
  • 202005Z AUTO 35010G23KT 300V050 9SM -RA FEW011 BKN020 BKN040 OVC066 12/12 A2957 RMK SLP022 DENSITY ALT 1700FT
  • 201934Z AUTO 34014G27KT 260V020 9SM -RA FEW023 BKN033 BKN096 OVC130 14/11 A2954 RMK SLP011 DENSITY ALT 1900FT
  • 201900Z AUTO 29004KT 270V350 9SM SCT060 BKN070 OVC100 16/14 A2953 RMK SLP008 DENSITY ALT 2200FT
  • 201805Z AUTO 26006KT 9SM -RA SCT050 BKN091 OVC120 16/13 A2954 RMK SLP008 DENSITY ALT 2200FT

TAF AMD TAF CYPL
Valid from the 20 at 20:00 until the 21 at 08:00 UTC


202003Z 2020/2108 35010G20KT P6SM -RA BKN040
TEMPO 2020/2022 P6SM NSW BKN020
FM202200 35012G22KT P6SM BKN020
TEMPO 2022/2024 BKN030
FM210000 36010G20KT P6SM BKN030 RMK FCST BASED ON AUTO OBS. NXT FCST BY 210200Z
CZWG FIR / North America



MET'MAP, your aeronautical weather chart ! - Copyright ORBIFLY December 2007 - Disclaimer

ORBIFLY MET'MAP TEAM :

Programming & Development : Alexandra Zaïnal
Concept & original design : Baudouin d'Aumeries
Assistance for programming : Marc-Olivier Méhu
Technical & hardware support : Manuel Goepfert

Contact : metmap@orbifly.com




SOURCES & CREDITS :

   NOAA       Earth
Advisory